人生、日々修行!

LUXURY FLIGHT

080-7560-1817

羽田空港本店:東京都大田区羽田空港3-3-2
第1旅客ターミナル5階
営業時間:10:00~20:00 定休日:年中無休
電話番号:080-7560-1817

セントレア店:愛知県常滑市セントレア1-1
FLIGHT OF DREAMS FLIGHT PARK
営業時間:10:00~20:00 定休日:年中無休
電話番号:080-4945-5666

lv

人生、日々修行!

STAFF BLOG

2020/01/14 人生、日々修行!

中部からこんばんはーーー!!!

 

RJGG 140900Z 29010KT 9999 FEW030 SCT110 10/01 Q1020 NOSIG

 

本日は、セントレア店の787のFO訓練生のNさま

 

度々、ブログにも登場します、FOコース(副操縦士養成コース)とは、

ラグジュアリーフライト独自のライセンス取得制度です。

簡単に言えば、「一般の方の操縦技量を、エアラインの副操縦士のレベルに近づけていくぞ!」という、

ラグフラ皆の愛と情熱のこもった構成で、肝いりのぶっ飛んだモノ(笑)

弊社アドバイザーも並々ならぬ、想いで共に取り組ませて頂いています!

 

必要条件は、ラグフラでのフライトタイム3時間、向上心、素直さ、探求心など。

また、コクピット内では、お客さまとアドバイザーの関係から、訓練生と教官の関係となります。
(しかし、もちろんコクピットを一歩出れば、送迎等のサービスは、

他のお客様と同じく対応させて頂いておりますので、どうぞご安心ください。)

 

Nさまは、FO訓練に投入されて以来、

これまで「離陸からの水平直線飛行(ストレベ)」に、真摯に励んでこられました!

nsamapfd

お仕事終わりでお疲れでも、定期的にご来店になり、

ストレベを通じて、己を見つめ、己と向き合ってこられた研鑽の日々。。。

 

そして、この度、ついにストレベ試験に合格!

本当におめでとうございます!!!

nsamafly

 

Nさまは、第一の目標を達成されて、感動もひとしおでしょう!

今後の課目にも必ず活きるはずです!

 

弊社アドバイザーも、訓練をサポートさせて頂いて、大いに刺激を受けています

今後も、787の操縦の難しさを、共に本気で楽しんで参りましょう!

よろしくお願い致します!!

 

本日もブログをお読みくださり、本当にありがとうございます。

「感謝」

TOP